sensor_id;sensor_type;location;lat;lon;timestamp;P1;durP1;ratioP1;P2;durP2;ratioP2
51594;SDS011;37677;53.254;6.594;2023-06-01T00:01:59;13.27;;;5.78;;
51594;SDS011;37677;53.254;6.594;2023-06-01T00:04:26;11.23;;;4.75;;
51594;SDS011;37677;53.254;6.594;2023-06-01T00:06:52;11.80;;;4.70;;
51594;SDS011;37677;53.254;6.594;2023-06-01T00:09:21;11.63;;;5.40;;
51594;SDS011;37677;53.254;6.594;2023-06-01T00:11:47;14.70;;;5.47;;
51594;SDS011;37677;53.254;6.594;2023-06-01T00:14:13;10.27;;;4.95;;
51594;SDS011;37677;53.254;6.594;2023-06-01T00:16:41;11.07;;;5.68;;
51594;SDS011;37677;53.254;6.594;2023-06-01T00:19:07;14.05;;;5.50;;
51594;SDS011;37677;53.254;6.594;2023-06-01T00:21:34;13.02;;;5.65;;
51594;SDS011;37677;53.254;6.594;2023-06-01T00:24:00;11.70;;;4.85;;
51594;SDS011;37677;53.254;6.594;2023-06-01T00:26:35;13.33;;;5.07;;
51594;SDS011;37677;53.254;6.594;2023-06-01T00:29:02;13.32;;;5.43;;
51594;SDS011;37677;53.254;6.594;2023-06-01T00:31:28;12.88;;;5.22;;
51594;SDS011;37677;53.254;6.594;2023-06-01T00:33:54;10.20;;;4.80;;
51594;SDS011;37677;53.254;6.594;2023-06-01T00:36:20;13.20;;;5.25;;
51594;SDS011;37677;53.254;6.594;2023-06-01T00:38:47;12.70;;;5.13;;
51594;SDS011;37677;53.254;6.594;2023-06-01T00:41:13;12.27;;;5.53;;
51594;SDS011;37677;53.254;6.594;2023-06-01T00:43:42;10.75;;;5.28;;
51594;SDS011;37677;53.254;6.594;2023-06-01T00:46:08;15.32;;;5.22;;
51594;SDS011;37677;53.254;6.594;2023-06-01T00:48:38;12.18;;;5.28;;
51594;SDS011;37677;53.254;6.594;2023-06-01T00:51:09;13.70;;;5.45;;
51594;SDS011;37677;53.254;6.594;2023-06-01T00:53:37;12.35;;;6.10;;
51594;SDS011;37677;53.254;6.594;2023-06-01T00:56:04;15.23;;;6.05;;
51594;SDS011;37677;53.254;6.594;2023-06-01T00:58:30;9.70;;;5.00;;
51594;SDS011;37677;53.254;6.594;2023-06-01T01:00:56;13.60;;;5.60;;
51594;SDS011;37677;53.254;6.594;2023-06-01T01:03:22;10.18;;;5.07;;
51594;SDS011;37677;53.254;6.594;2023-06-01T01:05:51;13.60;;;5.85;;
51594;SDS011;37677;53.254;6.594;2023-06-01T01:08:42;12.52;;;5.18;;
51594;SDS011;37677;53.254;6.594;2023-06-01T01:11:19;14.50;;;5.60;;
51594;SDS011;37677;53.254;6.594;2023-06-01T01:13:55;13.70;;;5.60;;
51594;SDS011;37677;53.254;6.594;2023-06-01T01:16:28;11.77;;;5.50;;
51594;SDS011;37677;53.254;6.594;2023-06-01T01:21:31;10.32;;;6.05;;
51594;SDS011;37677;53.254;6.594;2023-06-01T01:24:15;13.90;;;6.57;;
51594;SDS011;37677;53.254;6.594;2023-06-01T01:26:56;10.13;;;5.47;;
51594;SDS011;37677;53.254;6.594;2023-06-01T01:29:31;13.57;;;6.28;;
51594;SDS011;37677;53.254;6.594;2023-06-01T01:31:57;9.38;;;5.75;;
51594;SDS011;37677;53.254;6.594;2023-06-01T01:34:25;10.73;;;5.25;;
51594;SDS011;37677;53.254;6.594;2023-06-01T01:36:53;10.05;;;5.47;;
51594;SDS011;37677;53.254;6.594;2023-06-01T01:39:19;11.65;;;5.28;;
51594;SDS011;37677;53.254;6.594;2023-06-01T01:41:45;12.52;;;5.13;;
51594;SDS011;37677;53.254;6.594;2023-06-01T01:44:11;10.98;;;5.00;;
51594;SDS011;37677;53.254;6.594;2023-06-01T01:49:16;10.35;;;5.30;;
51594;SDS011;37677;53.254;6.594;2023-06-01T01:51:46;12.30;;;5.13;;
51594;SDS011;37677;53.254;6.594;2023-06-01T01:54:14;11.80;;;5.40;;
51594;SDS011;37677;53.254;6.594;2023-06-01T01:56:42;11.10;;;5.30;;
51594;SDS011;37677;53.254;6.594;2023-06-01T01:59:09;13.25;;;5.47;;
51594;SDS011;37677;53.254;6.594;2023-06-01T02:01:35;11.00;;;4.78;;
51594;SDS011;37677;53.254;6.594;2023-06-01T02:04:02;8.77;;;4.63;;
51594;SDS011;37677;53.254;6.594;2023-06-01T02:06:29;8.07;;;4.40;;
51594;SDS011;37677;53.254;6.594;2023-06-01T02:08:55;9.20;;;4.93;;
51594;SDS011;37677;53.254;6.594;2023-06-01T02:11:21;8.20;;;4.50;;
51594;SDS011;37677;53.254;6.594;2023-06-01T02:13:47;9.07;;;4.65;;
51594;SDS011;37677;53.254;6.594;2023-06-01T02:16:14;8.18;;;4.15;;
51594;SDS011;37677;53.254;6.594;2023-06-01T02:18:42;10.05;;;4.50;;
51594;SDS011;37677;53.254;6.594;2023-06-01T02:21:11;8.75;;;3.85;;
51594;SDS011;37677;53.254;6.594;2023-06-01T02:23:37;8.40;;;4.10;;
51594;SDS011;37677;53.254;6.594;2023-06-01T02:26:08;7.45;;;4.18;;
51594;SDS011;37677;53.254;6.594;2023-06-01T02:28:36;10.15;;;4.05;;
51594;SDS011;37677;53.254;6.594;2023-06-01T02:31:02;8.00;;;4.15;;
51594;SDS011;37677;53.254;6.594;2023-06-01T02:33:28;10.57;;;4.15;;
51594;SDS011;37677;53.254;6.594;2023-06-01T02:35:54;11.75;;;4.13;;
51594;SDS011;37677;53.254;6.594;2023-06-01T02:38:20;6.60;;;3.70;;
51594;SDS011;37677;53.254;6.594;2023-06-01T02:40:46;9.43;;;4.25;;
51594;SDS011;37677;53.254;6.594;2023-06-01T02:43:12;11.38;;;4.72;;
51594;SDS011;37677;53.254;6.594;2023-06-01T02:45:38;9.93;;;4.28;;
51594;SDS011;37677;53.254;6.594;2023-06-01T02:48:04;10.07;;;4.10;;
51594;SDS011;37677;53.254;6.594;2023-06-01T02:50:30;10.65;;;4.40;;
51594;SDS011;37677;53.254;6.594;2023-06-01T02:52:56;8.23;;;4.07;;
51594;SDS011;37677;53.254;6.594;2023-06-01T02:55:22;8.55;;;4.15;;
51594;SDS011;37677;53.254;6.594;2023-06-01T02:57:49;9.73;;;4.65;;
51594;SDS011;37677;53.254;6.594;2023-06-01T03:00:15;9.98;;;4.55;;
51594;SDS011;37677;53.254;6.594;2023-06-01T03:02:42;8.80;;;4.25;;
51594;SDS011;37677;53.254;6.594;2023-06-01T03:05:08;9.82;;;5.05;;
51594;SDS011;37677;53.254;6.594;2023-06-01T03:07:38;9.80;;;5.03;;
51594;SDS011;37677;53.254;6.594;2023-06-01T03:10:04;9.80;;;5.35;;
51594;SDS011;37677;53.254;6.594;2023-06-01T03:12:31;13.80;;;5.93;;
51594;SDS011;37677;53.254;6.594;2023-06-01T03:14:57;12.20;;;5.47;;
51594;SDS011;37677;53.254;6.594;2023-06-01T03:17:23;11.32;;;5.05;;
51594;SDS011;37677;53.254;6.594;2023-06-01T03:19:50;12.60;;;5.07;;
51594;SDS011;37677;53.254;6.594;2023-06-01T03:22:16;11.75;;;5.07;;
51594;SDS011;37677;53.254;6.594;2023-06-01T03:24:42;13.15;;;5.13;;
51594;SDS011;37677;53.254;6.594;2023-06-01T03:27:09;12.27;;;5.10;;
51594;SDS011;37677;53.254;6.594;2023-06-01T03:29:36;9.80;;;4.72;;
51594;SDS011;37677;53.254;6.594;2023-06-01T03:32:02;13.63;;;5.32;;
51594;SDS011;37677;53.254;6.594;2023-06-01T03:34:28;8.48;;;4.28;;
51594;SDS011;37677;53.254;6.594;2023-06-01T03:36:57;12.85;;;5.35;;
51594;SDS011;37677;53.254;6.594;2023-06-01T03:39:23;11.35;;;4.50;;
51594;SDS011;37677;53.254;6.594;2023-06-01T03:41:50;14.30;;;5.95;;
51594;SDS011;37677;53.254;6.594;2023-06-01T03:44:16;12.15;;;4.95;;
51594;SDS011;37677;53.254;6.594;2023-06-01T03:46:42;12.00;;;5.85;;
51594;SDS011;37677;53.254;6.594;2023-06-01T03:49:08;10.82;;;5.32;;
51594;SDS011;37677;53.254;6.594;2023-06-01T03:51:34;12.32;;;5.43;;
51594;SDS011;37677;53.254;6.594;2023-06-01T03:54:01;12.05;;;5.05;;
51594;SDS011;37677;53.254;6.594;2023-06-01T03:56:27;9.48;;;4.90;;
51594;SDS011;37677;53.254;6.594;2023-06-01T03:58:53;11.77;;;5.53;;
51594;SDS011;37677;53.254;6.594;2023-06-01T04:01:19;15.15;;;6.03;;
51594;SDS011;37677;53.254;6.594;2023-06-01T04:03:47;17.02;;;6.10;;
51594;SDS011;37677;53.254;6.594;2023-06-01T04:06:14;10.50;;;5.07;;
51594;SDS011;37677;53.254;6.594;2023-06-01T04:08:45;12.98;;;4.97;;
51594;SDS011;37677;53.254;6.594;2023-06-01T04:11:16;14.73;;;4.80;;
51594;SDS011;37677;53.254;6.594;2023-06-01T04:13:42;11.35;;;5.15;;
51594;SDS011;37677;53.254;6.594;2023-06-01T04:16:12;12.80;;;5.40;;
51594;SDS011;37677;53.254;6.594;2023-06-01T04:18:38;10.05;;;4.90;;
51594;SDS011;37677;53.254;6.594;2023-06-01T04:21:04;12.18;;;4.75;;
51594;SDS011;37677;53.254;6.594;2023-06-01T04:23:32;13.23;;;5.07;;
51594;SDS011;37677;53.254;6.594;2023-06-01T04:25:58;9.90;;;4.70;;
51594;SDS011;37677;53.254;6.594;2023-06-01T04:28:25;8.50;;;4.22;;
51594;SDS011;37677;53.254;6.594;2023-06-01T04:30:52;8.68;;;4.40;;
51594;SDS011;37677;53.254;6.594;2023-06-01T04:33:19;8.77;;;4.55;;
51594;SDS011;37677;53.254;6.594;2023-06-01T04:35:47;12.68;;;4.80;;
51594;SDS011;37677;53.254;6.594;2023-06-01T04:38:13;9.10;;;4.20;;
51594;SDS011;37677;53.254;6.594;2023-06-01T04:40:41;11.95;;;4.65;;
51594;SDS011;37677;53.254;6.594;2023-06-01T04:43:10;7.70;;;4.53;;
51594;SDS011;37677;53.254;6.594;2023-06-01T04:45:37;11.57;;;5.22;;
51594;SDS011;37677;53.254;6.594;2023-06-01T04:48:04;10.35;;;4.65;;
51594;SDS011;37677;53.254;6.594;2023-06-01T04:50:36;7.97;;;4.38;;
51594;SDS011;37677;53.254;6.594;2023-06-01T04:53:03;9.63;;;4.70;;
51594;SDS011;37677;53.254;6.594;2023-06-01T04:55:29;10.35;;;4.25;;
51594;SDS011;37677;53.254;6.594;2023-06-01T04:57:55;12.45;;;4.57;;
51594;SDS011;37677;53.254;6.594;2023-06-01T05:00:21;9.73;;;3.75;;
51594;SDS011;37677;53.254;6.594;2023-06-01T05:02:48;9.73;;;4.00;;
51594;SDS011;37677;53.254;6.594;2023-06-01T05:05:14;8.57;;;3.65;;
51594;SDS011;37677;53.254;6.594;2023-06-01T05:07:41;12.43;;;4.10;;
51594;SDS011;37677;53.254;6.594;2023-06-01T05:10:08;9.23;;;4.18;;
51594;SDS011;37677;53.254;6.594;2023-06-01T05:12:35;7.88;;;4.05;;
51594;SDS011;37677;53.254;6.594;2023-06-01T05:15:05;9.65;;;4.15;;
51594;SDS011;37677;53.254;6.594;2023-06-01T05:17:32;9.65;;;4.20;;
51594;SDS011;37677;53.254;6.594;2023-06-01T05:19:58;11.32;;;4.35;;
51594;SDS011;37677;53.254;6.594;2023-06-01T05:22:24;10.30;;;4.20;;
51594;SDS011;37677;53.254;6.594;2023-06-01T05:24:50;8.32;;;4.35;;
51594;SDS011;37677;53.254;6.594;2023-06-01T05:27:16;9.25;;;4.28;;
51594;SDS011;37677;53.254;6.594;2023-06-01T05:29:43;11.40;;;4.63;;
51594;SDS011;37677;53.254;6.594;2023-06-01T05:32:09;13.18;;;5.10;;
51594;SDS011;37677;53.254;6.594;2023-06-01T05:34:35;6.90;;;4.03;;
51594;SDS011;37677;53.254;6.594;2023-06-01T05:37:01;7.75;;;4.72;;
51594;SDS011;37677;53.254;6.594;2023-06-01T05:39:28;7.07;;;3.97;;
51594;SDS011;37677;53.254;6.594;2023-06-01T05:41:54;8.88;;;4.15;;
51594;SDS011;37677;53.254;6.594;2023-06-01T05:44:21;7.05;;;3.97;;
51594;SDS011;37677;53.254;6.594;2023-06-01T05:46:47;8.02;;;3.85;;
51594;SDS011;37677;53.254;6.594;2023-06-01T05:49:14;7.85;;;4.07;;
51594;SDS011;37677;53.254;6.594;2023-06-01T05:51:40;7.47;;;3.65;;
51594;SDS011;37677;53.254;6.594;2023-06-01T05:54:08;7.10;;;3.13;;
51594;SDS011;37677;53.254;6.594;2023-06-01T05:56:34;7.35;;;3.40;;
51594;SDS011;37677;53.254;6.594;2023-06-01T05:59:02;5.85;;;3.28;;
51594;SDS011;37677;53.254;6.594;2023-06-01T06:01:28;7.60;;;3.50;;
51594;SDS011;37677;53.254;6.594;2023-06-01T06:03:55;5.97;;;3.00;;
51594;SDS011;37677;53.254;6.594;2023-06-01T06:06:22;6.85;;;3.03;;
51594;SDS011;37677;53.254;6.594;2023-06-01T06:08:48;7.78;;;2.83;;
51594;SDS011;37677;53.254;6.594;2023-06-01T06:11:15;5.57;;;2.67;;
51594;SDS011;37677;53.254;6.594;2023-06-01T06:13:41;5.13;;;2.80;;
51594;SDS011;37677;53.254;6.594;2023-06-01T06:16:07;6.60;;;3.00;;
51594;SDS011;37677;53.254;6.594;2023-06-01T06:18:33;5.15;;;3.20;;
51594;SDS011;37677;53.254;6.594;2023-06-01T06:20:59;6.70;;;2.95;;
51594;SDS011;37677;53.254;6.594;2023-06-01T06:23:26;4.20;;;2.58;;
51594;SDS011;37677;53.254;6.594;2023-06-01T06:25:52;6.97;;;2.80;;
51594;SDS011;37677;53.254;6.594;2023-06-01T06:28:18;8.40;;;2.67;;
51594;SDS011;37677;53.254;6.594;2023-06-01T06:30:44;6.13;;;2.80;;
51594;SDS011;37677;53.254;6.594;2023-06-01T06:33:11;4.65;;;2.35;;
51594;SDS011;37677;53.254;6.594;2023-06-01T06:35:41;4.82;;;2.50;;
51594;SDS011;37677;53.254;6.594;2023-06-01T06:38:07;4.43;;;2.00;;
51594;SDS011;37677;53.254;6.594;2023-06-01T06:40:33;4.65;;;2.17;;
51594;SDS011;37677;53.254;6.594;2023-06-01T06:43:00;4.85;;;2.50;;
51594;SDS011;37677;53.254;6.594;2023-06-01T06:45:26;3.53;;;2.15;;
51594;SDS011;37677;53.254;6.594;2023-06-01T06:47:52;4.05;;;2.10;;
51594;SDS011;37677;53.254;6.594;2023-06-01T06:50:18;3.00;;;1.90;;
51594;SDS011;37677;53.254;6.594;2023-06-01T06:52:45;5.40;;;2.42;;
51594;SDS011;37677;53.254;6.594;2023-06-01T06:55:11;4.82;;;2.33;;
51594;SDS011;37677;53.254;6.594;2023-06-01T06:57:37;5.35;;;2.50;;
51594;SDS011;37677;53.254;6.594;2023-06-01T07:00:05;5.07;;;2.38;;
51594;SDS011;37677;53.254;6.594;2023-06-01T07:02:32;5.00;;;2.47;;
51594;SDS011;37677;53.254;6.594;2023-06-01T07:04:58;5.18;;;3.03;;
51594;SDS011;37677;53.254;6.594;2023-06-01T07:07:24;5.57;;;2.85;;
51594;SDS011;37677;53.254;6.594;2023-06-01T07:09:51;5.55;;;2.83;;
51594;SDS011;37677;53.254;6.594;2023-06-01T07:12:18;6.53;;;3.15;;
51594;SDS011;37677;53.254;6.594;2023-06-01T07:14:44;5.13;;;3.28;;
51594;SDS011;37677;53.254;6.594;2023-06-01T07:17:10;5.63;;;3.15;;
51594;SDS011;37677;53.254;6.594;2023-06-01T07:19:36;7.00;;;3.25;;
51594;SDS011;37677;53.254;6.594;2023-06-01T07:22:02;5.43;;;2.78;;
51594;SDS011;37677;53.254;6.594;2023-06-01T07:24:28;4.47;;;2.70;;
51594;SDS011;37677;53.254;6.594;2023-06-01T07:26:54;5.45;;;2.50;;
51594;SDS011;37677;53.254;6.594;2023-06-01T07:29:22;5.72;;;2.50;;
51594;SDS011;37677;53.254;6.594;2023-06-01T07:31:51;5.78;;;2.90;;
51594;SDS011;37677;53.254;6.594;2023-06-01T07:34:18;8.77;;;3.50;;
51594;SDS011;37677;53.254;6.594;2023-06-01T07:36:45;6.50;;;3.47;;
51594;SDS011;37677;53.254;6.594;2023-06-01T07:39:12;7.72;;;3.50;;
51594;SDS011;37677;53.254;6.594;2023-06-01T07:41:38;7.63;;;3.63;;
51594;SDS011;37677;53.254;6.594;2023-06-01T07:44:05;8.45;;;3.67;;
51594;SDS011;37677;53.254;6.594;2023-06-01T07:46:31;6.80;;;2.70;;
51594;SDS011;37677;53.254;6.594;2023-06-01T07:48:57;4.97;;;2.95;;
51594;SDS011;37677;53.254;6.594;2023-06-01T07:51:24;7.13;;;2.60;;
51594;SDS011;37677;53.254;6.594;2023-06-01T07:53:50;5.93;;;2.67;;
51594;SDS011;37677;53.254;6.594;2023-06-01T07:56:16;6.35;;;2.75;;
51594;SDS011;37677;53.254;6.594;2023-06-01T07:58:42;7.90;;;2.53;;
51594;SDS011;37677;53.254;6.594;2023-06-01T08:01:09;4.60;;;2.20;;
51594;SDS011;37677;53.254;6.594;2023-06-01T08:03:41;4.78;;;2.58;;
51594;SDS011;37677;53.254;6.594;2023-06-01T08:06:08;6.78;;;2.92;;
51594;SDS011;37677;53.254;6.594;2023-06-01T08:08:34;8.77;;;2.90;;
51594;SDS011;37677;53.254;6.594;2023-06-01T08:11:00;6.20;;;2.75;;
51594;SDS011;37677;53.254;6.594;2023-06-01T08:13:26;10.20;;;3.40;;
51594;SDS011;37677;53.254;6.594;2023-06-01T08:15:52;7.82;;;3.13;;
51594;SDS011;37677;53.254;6.594;2023-06-01T08:18:19;7.97;;;3.22;;
51594;SDS011;37677;53.254;6.594;2023-06-01T08:20:46;8.45;;;3.95;;
51594;SDS011;37677;53.254;6.594;2023-06-01T08:23:13;9.02;;;3.15;;
51594;SDS011;37677;53.254;6.594;2023-06-01T08:25:41;6.18;;;3.08;;
51594;SDS011;37677;53.254;6.594;2023-06-01T08:28:07;8.30;;;3.63;;
51594;SDS011;37677;53.254;6.594;2023-06-01T08:30:33;9.20;;;3.33;;
51594;SDS011;37677;53.254;6.594;2023-06-01T08:32:59;10.18;;;4.13;;
51594;SDS011;37677;53.254;6.594;2023-06-01T08:35:27;7.25;;;3.75;;
51594;SDS011;37677;53.254;6.594;2023-06-01T08:37:55;14.88;;;4.50;;
51594;SDS011;37677;53.254;6.594;2023-06-01T08:40:21;12.85;;;4.63;;
51594;SDS011;37677;53.254;6.594;2023-06-01T08:45:16;14.40;;;4.40;;
51594;SDS011;37677;53.254;6.594;2023-06-01T08:47:43;14.95;;;5.10;;
51594;SDS011;37677;53.254;6.594;2023-06-01T08:50:11;15.18;;;5.03;;
51594;SDS011;37677;53.254;6.594;2023-06-01T08:52:38;10.40;;;3.92;;
51594;SDS011;37677;53.254;6.594;2023-06-01T08:55:04;8.65;;;3.42;;
51594;SDS011;37677;53.254;6.594;2023-06-01T08:57:31;12.23;;;3.63;;
51594;SDS011;37677;53.254;6.594;2023-06-01T08:59:57;12.30;;;3.70;;
51594;SDS011;37677;53.254;6.594;2023-06-01T09:02:24;11.88;;;3.83;;
51594;SDS011;37677;53.254;6.594;2023-06-01T09:04:50;11.57;;;3.60;;
51594;SDS011;37677;53.254;6.594;2023-06-01T09:07:17;13.00;;;3.90;;
51594;SDS011;37677;53.254;6.594;2023-06-01T09:09:43;5.97;;;3.20;;
51594;SDS011;37677;53.254;6.594;2023-06-01T09:12:17;9.95;;;3.47;;
51594;SDS011;37677;53.254;6.594;2023-06-01T09:14:43;9.55;;;3.17;;
51594;SDS011;37677;53.254;6.594;2023-06-01T09:17:20;11.68;;;3.40;;
51594;SDS011;37677;53.254;6.594;2023-06-01T09:19:47;10.63;;;3.58;;
51594;SDS011;37677;53.254;6.594;2023-06-01T09:22:13;10.00;;;3.65;;
51594;SDS011;37677;53.254;6.594;2023-06-01T09:24:39;9.23;;;3.00;;
51594;SDS011;37677;53.254;6.594;2023-06-01T09:27:06;9.13;;;3.45;;
51594;SDS011;37677;53.254;6.594;2023-06-01T09:29:32;9.88;;;3.05;;
51594;SDS011;37677;53.254;6.594;2023-06-01T09:32:01;9.48;;;3.63;;
51594;SDS011;37677;53.254;6.594;2023-06-01T09:34:27;13.18;;;4.00;;
51594;SDS011;37677;53.254;6.594;2023-06-01T09:36:55;12.20;;;4.00;;
51594;SDS011;37677;53.254;6.594;2023-06-01T09:39:22;10.32;;;3.63;;
51594;SDS011;37677;53.254;6.594;2023-06-01T09:44:21;9.63;;;3.83;;
51594;SDS011;37677;53.254;6.594;2023-06-01T09:49:24;11.02;;;3.63;;
51594;SDS011;37677;53.254;6.594;2023-06-01T09:51:51;7.60;;;3.13;;
51594;SDS011;37677;53.254;6.594;2023-06-01T09:54:21;8.60;;;3.45;;
51594;SDS011;37677;53.254;6.594;2023-06-01T09:56:47;9.60;;;3.72;;
51594;SDS011;37677;53.254;6.594;2023-06-01T09:59:14;7.32;;;2.97;;
51594;SDS011;37677;53.254;6.594;2023-06-01T10:01:40;9.38;;;3.65;;
51594;SDS011;37677;53.254;6.594;2023-06-01T10:04:07;12.65;;;3.50;;
51594;SDS011;37677;53.254;6.594;2023-06-01T10:06:35;11.93;;;4.20;;
51594;SDS011;37677;53.254;6.594;2023-06-01T10:09:09;8.77;;;3.28;;
51594;SDS011;37677;53.254;6.594;2023-06-01T10:11:40;15.15;;;3.92;;
51594;SDS011;37677;53.254;6.594;2023-06-01T10:14:07;12.20;;;4.28;;
51594;SDS011;37677;53.254;6.594;2023-06-01T10:16:33;10.63;;;3.78;;
51594;SDS011;37677;53.254;6.594;2023-06-01T10:18:59;11.05;;;3.88;;
51594;SDS011;37677;53.254;6.594;2023-06-01T10:21:27;11.43;;;3.75;;
51594;SDS011;37677;53.254;6.594;2023-06-01T10:23:53;9.45;;;3.60;;
51594;SDS011;37677;53.254;6.594;2023-06-01T10:26:23;12.20;;;3.83;;
51594;SDS011;37677;53.254;6.594;2023-06-01T10:28:51;11.98;;;3.13;;
51594;SDS011;37677;53.254;6.594;2023-06-01T10:31:38;8.60;;;3.63;;
51594;SDS011;37677;53.254;6.594;2023-06-01T10:34:05;10.75;;;3.55;;
51594;SDS011;37677;53.254;6.594;2023-06-01T10:41:55;13.20;;;3.87;;
51594;SDS011;37677;53.254;6.594;2023-06-01T10:54:52;10.68;;;3.58;;
51594;SDS011;37677;53.254;6.594;2023-06-01T10:57:22;8.25;;;2.80;;
51594;SDS011;37677;53.254;6.594;2023-06-01T11:02:34;10.85;;;3.60;;
51594;SDS011;37677;53.254;6.594;2023-06-01T11:07:45;12.52;;;3.75;;
51594;SDS011;37677;53.254;6.594;2023-06-01T11:10:11;10.68;;;3.45;;
51594;SDS011;37677;53.254;6.594;2023-06-01T11:15:22;9.75;;;3.53;;
51594;SDS011;37677;53.254;6.594;2023-06-01T11:17:49;7.63;;;3.65;;
51594;SDS011;37677;53.254;6.594;2023-06-01T11:20:18;9.60;;;3.25;;
51594;SDS011;37677;53.254;6.594;2023-06-01T11:22:45;12.60;;;3.47;;
51594;SDS011;37677;53.254;6.594;2023-06-01T11:25:13;9.20;;;3.55;;
51594;SDS011;37677;53.254;6.594;2023-06-01T11:27:42;9.55;;;3.38;;
51594;SDS011;37677;53.254;6.594;2023-06-01T11:30:09;14.15;;;4.00;;
51594;SDS011;37677;53.254;6.594;2023-06-01T11:32:36;11.57;;;3.67;;
51594;SDS011;37677;53.254;6.594;2023-06-01T11:35:15;11.00;;;3.33;;
51594;SDS011;37677;53.254;6.594;2023-06-01T11:37:41;11.65;;;3.63;;
51594;SDS011;37677;53.254;6.594;2023-06-01T11:40:07;10.90;;;3.28;;
51594;SDS011;37677;53.254;6.594;2023-06-01T11:42:35;9.38;;;3.70;;
51594;SDS011;37677;53.254;6.594;2023-06-01T11:45:01;11.50;;;4.00;;
51594;SDS011;37677;53.254;6.594;2023-06-01T11:47:29;8.02;;;3.25;;
51594;SDS011;37677;53.254;6.594;2023-06-01T11:49:56;15.10;;;3.95;;
51594;SDS011;37677;53.254;6.594;2023-06-01T11:52:22;10.18;;;3.53;;
51594;SDS011;37677;53.254;6.594;2023-06-01T11:54:48;9.95;;;3.47;;
51594;SDS011;37677;53.254;6.594;2023-06-01T11:57:16;6.65;;;3.08;;
51594;SDS011;37677;53.254;6.594;2023-06-01T11:59:44;8.82;;;3.45;;
51594;SDS011;37677;53.254;6.594;2023-06-01T12:02:21;9.13;;;3.42;;
51594;SDS011;37677;53.254;6.594;2023-06-01T12:04:55;11.20;;;3.75;;
51594;SDS011;37677;53.254;6.594;2023-06-01T12:07:22;12.85;;;4.55;;
51594;SDS011;37677;53.254;6.594;2023-06-01T12:09:50;15.48;;;4.65;;
51594;SDS011;37677;53.254;6.594;2023-06-01T12:12:18;13.75;;;4.63;;
51594;SDS011;37677;53.254;6.594;2023-06-01T12:14:45;12.43;;;4.72;;
51594;SDS011;37677;53.254;6.594;2023-06-01T12:17:11;16.25;;;4.40;;
51594;SDS011;37677;53.254;6.594;2023-06-01T12:19:44;10.77;;;3.90;;
51594;SDS011;37677;53.254;6.594;2023-06-01T12:22:12;13.27;;;3.88;;
51594;SDS011;37677;53.254;6.594;2023-06-01T12:24:38;12.55;;;4.30;;
51594;SDS011;37677;53.254;6.594;2023-06-01T12:27:12;10.38;;;3.50;;
51594;SDS011;37677;53.254;6.594;2023-06-01T12:29:40;13.00;;;4.00;;
51594;SDS011;37677;53.254;6.594;2023-06-01T12:32:07;15.18;;;4.40;;
51594;SDS011;37677;53.254;6.594;2023-06-01T12:34:34;12.52;;;4.20;;
51594;SDS011;37677;53.254;6.594;2023-06-01T12:37:17;12.45;;;4.07;;
51594;SDS011;37677;53.254;6.594;2023-06-01T12:39:43;12.63;;;4.57;;
51594;SDS011;37677;53.254;6.594;2023-06-01T12:42:17;16.92;;;4.22;;
51594;SDS011;37677;53.254;6.594;2023-06-01T12:44:43;14.05;;;4.13;;
51594;SDS011;37677;53.254;6.594;2023-06-01T12:47:11;15.05;;;4.45;;
51594;SDS011;37677;53.254;6.594;2023-06-01T12:49:37;12.65;;;4.20;;
51594;SDS011;37677;53.254;6.594;2023-06-01T12:52:05;13.43;;;4.88;;
51594;SDS011;37677;53.254;6.594;2023-06-01T12:54:31;12.32;;;4.55;;
51594;SDS011;37677;53.254;6.594;2023-06-01T12:56:57;15.95;;;4.35;;
51594;SDS011;37677;53.254;6.594;2023-06-01T12:59:23;12.75;;;4.80;;
51594;SDS011;37677;53.254;6.594;2023-06-01T13:01:49;11.85;;;4.00;;
51594;SDS011;37677;53.254;6.594;2023-06-01T13:04:15;14.80;;;4.28;;
51594;SDS011;37677;53.254;6.594;2023-06-01T13:06:44;15.65;;;4.28;;
51594;SDS011;37677;53.254;6.594;2023-06-01T13:09:11;11.32;;;4.50;;
51594;SDS011;37677;53.254;6.594;2023-06-01T13:11:42;11.18;;;4.20;;
51594;SDS011;37677;53.254;6.594;2023-06-01T13:14:08;13.77;;;4.18;;
51594;SDS011;37677;53.254;6.594;2023-06-01T13:16:34;13.63;;;3.78;;
51594;SDS011;37677;53.254;6.594;2023-06-01T13:19:00;13.63;;;3.88;;
51594;SDS011;37677;53.254;6.594;2023-06-01T13:21:29;8.70;;;3.15;;
51594;SDS011;37677;53.254;6.594;2023-06-01T13:23:56;7.75;;;2.78;;
51594;SDS011;37677;53.254;6.594;2023-06-01T13:26:22;9.23;;;2.70;;
51594;SDS011;37677;53.254;6.594;2023-06-01T13:28:50;9.15;;;2.95;;
51594;SDS011;37677;53.254;6.594;2023-06-01T13:31:17;12.38;;;3.25;;
51594;SDS011;37677;53.254;6.594;2023-06-01T13:33:44;9.68;;;2.70;;
51594;SDS011;37677;53.254;6.594;2023-06-01T13:36:13;10.13;;;3.03;;
51594;SDS011;37677;53.254;6.594;2023-06-01T13:38:42;11.02;;;3.22;;
51594;SDS011;37677;53.254;6.594;2023-06-01T13:41:08;10.18;;;3.15;;
51594;SDS011;37677;53.254;6.594;2023-06-01T13:43:37;11.88;;;3.03;;
51594;SDS011;37677;53.254;6.594;2023-06-01T13:46:05;9.95;;;3.05;;
51594;SDS011;37677;53.254;6.594;2023-06-01T13:48:33;7.45;;;2.95;;
51594;SDS011;37677;53.254;6.594;2023-06-01T13:50:59;11.23;;;3.03;;
51594;SDS011;37677;53.254;6.594;2023-06-01T13:53:27;6.90;;;2.55;;
51594;SDS011;37677;53.254;6.594;2023-06-01T13:55:53;7.20;;;2.58;;
51594;SDS011;37677;53.254;6.594;2023-06-01T13:58:20;9.52;;;2.88;;
51594;SDS011;37677;53.254;6.594;2023-06-01T14:00:46;8.98;;;2.58;;
51594;SDS011;37677;53.254;6.594;2023-06-01T14:03:16;10.10;;;3.08;;
51594;SDS011;37677;53.254;6.594;2023-06-01T14:05:42;8.02;;;2.65;;
51594;SDS011;37677;53.254;6.594;2023-06-01T14:08:08;8.10;;;2.30;;
51594;SDS011;37677;53.254;6.594;2023-06-01T14:10:34;6.38;;;2.15;;
51594;SDS011;37677;53.254;6.594;2023-06-01T14:13:01;10.77;;;2.15;;
51594;SDS011;37677;53.254;6.594;2023-06-01T14:15:27;4.65;;;1.58;;
51594;SDS011;37677;53.254;6.594;2023-06-01T14:17:53;5.25;;;1.65;;
51594;SDS011;37677;53.254;6.594;2023-06-01T14:20:21;4.38;;;1.73;;
51594;SDS011;37677;53.254;6.594;2023-06-01T14:22:47;7.18;;;2.47;;
51594;SDS011;37677;53.254;6.594;2023-06-01T14:25:13;5.82;;;1.92;;
51594;SDS011;37677;53.254;6.594;2023-06-01T14:27:41;9.75;;;2.65;;
51594;SDS011;37677;53.254;6.594;2023-06-01T14:30:07;7.68;;;2.00;;
51594;SDS011;37677;53.254;6.594;2023-06-01T14:32:34;5.95;;;2.22;;
51594;SDS011;37677;53.254;6.594;2023-06-01T14:35:00;7.97;;;2.35;;
51594;SDS011;37677;53.254;6.594;2023-06-01T14:37:26;5.90;;;2.25;;
51594;SDS011;37677;53.254;6.594;2023-06-01T14:39:52;8.23;;;2.40;;
51594;SDS011;37677;53.254;6.594;2023-06-01T14:42:19;8.43;;;2.33;;
51594;SDS011;37677;53.254;6.594;2023-06-01T14:44:46;7.97;;;2.58;;
51594;SDS011;37677;53.254;6.594;2023-06-01T14:47:12;7.97;;;2.65;;
51594;SDS011;37677;53.254;6.594;2023-06-01T14:49:39;8.50;;;2.20;;
51594;SDS011;37677;53.254;6.594;2023-06-01T14:52:05;6.78;;;2.13;;
51594;SDS011;37677;53.254;6.594;2023-06-01T14:54:31;5.15;;;2.10;;
51594;SDS011;37677;53.254;6.594;2023-06-01T14:56:57;6.40;;;2.25;;
51594;SDS011;37677;53.254;6.594;2023-06-01T14:59:23;7.20;;;1.98;;
51594;SDS011;37677;53.254;6.594;2023-06-01T15:01:49;7.43;;;2.10;;
51594;SDS011;37677;53.254;6.594;2023-06-01T15:04:16;7.95;;;1.90;;
51594;SDS011;37677;53.254;6.594;2023-06-01T15:06:42;8.35;;;2.35;;
51594;SDS011;37677;53.254;6.594;2023-06-01T15:09:08;8.23;;;2.10;;
51594;SDS011;37677;53.254;6.594;2023-06-01T15:11:34;7.35;;;2.00;;
51594;SDS011;37677;53.254;6.594;2023-06-01T15:14:00;7.03;;;2.45;;
51594;SDS011;37677;53.254;6.594;2023-06-01T15:16:26;7.22;;;2.10;;
51594;SDS011;37677;53.254;6.594;2023-06-01T15:18:53;8.10;;;2.00;;